TimeCDT,TemperatureF,Dew PointF,Humidity,Sea Level PressureIn,VisibilityMPH,Wind Direction,Wind SpeedMPH,Gust SpeedMPH,PrecipitationIn,Events,Conditions,WindDirDegrees,DateUTC
12:15 AM,53.6,42.8,67,29.97,10.0,NW,13.8,-,N/A,,Clear,320,2013-05-09 05:15:00
12:35 AM,51.8,42.8,71,29.98,10.0,NNW,11.5,-,N/A,,Clear,330,2013-05-09 05:35:00
12:55 AM,51.8,42.8,71,29.97,10.0,North,11.5,-,N/A,,Clear,360,2013-05-09 05:55:00
1:15 AM,51.8,42.8,71,29.97,10.0,NNW,10.4,-,N/A,,Clear,330,2013-05-09 06:15:00
1:35 AM,50.0,42.8,76,29.99,10.0,NW,11.5,-,N/A,,Clear,320,2013-05-09 06:35:00
1:55 AM,50.0,42.8,76,29.98,10.0,NW,11.5,-,N/A,,Clear,320,2013-05-09 06:55:00
2:15 AM,51.8,42.8,71,29.98,10.0,NNW,8.1,-,N/A,,Mostly Cloudy,340,2013-05-09 07:15:00
2:35 AM,50.0,42.8,76,29.98,10.0,NW,10.4,-,N/A,,Scattered Clouds,320,2013-05-09 07:35:00
2:55 AM,50.0,41.0,71,29.97,10.0,NNW,10.4,-,N/A,,Partly Cloudy,330,2013-05-09 07:55:00
3:15 AM,48.2,41.0,76,29.97,10.0,NW,10.4,-,N/A,,Partly Cloudy,320,2013-05-09 08:15:00
3:35 AM,48.2,41.0,76,29.97,10.0,NW,10.4,-,N/A,,Scattered Clouds,310,2013-05-09 08:35:00
3:55 AM,50.0,42.8,76,29.97,10.0,NW,9.2,-,N/A,,Overcast,310,2013-05-09 08:55:00
4:15 AM,51.8,42.8,71,29.97,10.0,NNW,9.2,-,N/A,,Overcast,340,2013-05-09 09:15:00
4:35 AM,51.8,42.8,71,29.97,10.0,NW,11.5,-,N/A,,Overcast,320,2013-05-09 09:35:00
4:55 AM,51.8,42.8,71,29.97,10.0,NNW,9.2,-,N/A,,Overcast,330,2013-05-09 09:55:00
5:15 AM,48.2,41.0,76,29.97,10.0,NW,10.4,-,N/A,,Overcast,320,2013-05-09 10:15:00
5:35 AM,48.2,39.2,71,29.97,10.0,NNW,12.7,-,N/A,,Mostly Cloudy,330,2013-05-09 10:35:00
5:55 AM,46.4,39.2,76,29.97,10.0,NW,9.2,-,N/A,,Scattered Clouds,320,2013-05-09 10:55:00
6:15 AM,46.4,39.2,76,29.99,10.0,WNW,8.1,-,N/A,,Scattered Clouds,300,2013-05-09 11:15:00
6:35 AM,46.4,39.2,76,29.99,10.0,NW,10.4,-,N/A,,Mostly Cloudy,310,2013-05-09 11:35:00
6:55 AM,46.4,39.2,76,30.00,10.0,NW,11.5,-,N/A,,Scattered Clouds,310,2013-05-09 11:55:00
7:15 AM,46.4,39.2,76,30.01,10.0,NW,11.5,-,N/A,,Clear,320,2013-05-09 12:15:00
7:35 AM,46.4,39.2,76,30.01,10.0,NW,11.5,-,N/A,,Clear,320,2013-05-09 12:35:00
7:55 AM,48.2,42.8,82,30.01,10.0,NNW,15.0,-,N/A,,Clear,330,2013-05-09 12:55:00
8:15 AM,51.8,42.8,71,30.03,10.0,NNW,12.7,-,N/A,,Clear,330,2013-05-09 13:15:00
8:35 AM,53.6,44.6,72,30.03,10.0,NNW,12.7,-,N/A,,Clear,340,2013-05-09 13:35:00
8:55 AM,57.2,46.4,67,30.03,10.0,NNW,13.8,-,N/A,,Clear,340,2013-05-09 13:55:00
9:15 AM,59.0,48.2,67,30.04,10.0,North,16.1,-,N/A,,Clear,350,2013-05-09 14:15:00
9:35 AM,60.8,48.2,63,30.05,10.0,NNW,13.8,-,N/A,,Clear,340,2013-05-09 14:35:00
9:55 AM,62.6,48.2,59,30.05,10.0,North,15.0,-,N/A,,Clear,350,2013-05-09 14:55:00
10:35 AM,64.4,50.0,59,30.05,10.0,North,15.0,-,N/A,,Clear,360,2013-05-09 15:35:00
10:55 AM,66.2,50.0,56,30.05,10.0,North,12.7,-,N/A,,Clear,350,2013-05-09 15:55:00
11:15 AM,66.2,48.2,52,30.05,10.0,NNE,15.0,19.6,N/A,,Clear,30,2013-05-09 16:15:00
11:35 AM,68.0,48.2,49,30.05,10.0,NNE,15.0,-,N/A,,Scattered Clouds,30,2013-05-09 16:35:00
12:15 PM,69.8,48.2,46,30.05,10.0,North,15.0,20.7,N/A,,Mostly Cloudy,360,2013-05-09 17:15:00
12:35 PM,69.8,48.2,46,30.05,10.0,NNE,13.8,21.9,N/A,,Partly Cloudy,30,2013-05-09 17:35:00
12:55 PM,71.6,48.2,43,30.04,10.0,NNE,16.1,33.4,N/A,,Scattered Clouds,20,2013-05-09 17:55:00
1:15 PM,69.8,48.2,46,30.04,10.0,North,18.4,24.2,N/A,,Mostly Cloudy,10,2013-05-09 18:15:00
1:35 PM,71.6,48.2,43,30.05,10.0,North,18.4,26.5,N/A,,Scattered Clouds,10,2013-05-09 18:35:00
1:55 PM,73.4,48.2,41,30.04,10.0,NE,12.7,19.6,N/A,,Scattered Clouds,40,2013-05-09 18:55:00
2:15 PM,73.4,48.2,41,30.03,10.0,North,15.0,21.9,N/A,,Mostly Cloudy,360,2013-05-09 19:15:00
2:35 PM,73.4,48.2,41,30.03,10.0,North,18.4,24.2,N/A,,Scattered Clouds,360,2013-05-09 19:35:00
2:55 PM,73.4,46.4,38,30.03,10.0,North,17.3,23.0,N/A,,Scattered Clouds,10,2013-05-09 19:55:00
3:15 PM,71.6,44.6,38,30.03,10.0,North,16.1,24.2,N/A,,Mostly Cloudy,10,2013-05-09 20:15:00
3:35 PM,71.6,44.6,38,30.03,10.0,NNE,17.3,26.5,N/A,,Mostly Cloudy,30,2013-05-09 20:35:00
3:55 PM,69.8,44.6,40,30.02,10.0,North,17.3,-,N/A,,Overcast,10,2013-05-09 20:55:00
4:15 PM,71.6,46.4,41,30.02,10.0,NNE,11.5,19.6,N/A,,Mostly Cloudy,30,2013-05-09 21:15:00
4:35 PM,71.6,44.6,38,30.02,10.0,NE,17.3,21.9,N/A,,Mostly Cloudy,40,2013-05-09 21:35:00
4:55 PM,73.4,44.6,36,30.02,10.0,NNE,20.7,24.2,N/A,,Mostly Cloudy,20,2013-05-09 21:55:00
5:15 PM,71.6,44.6,38,30.01,10.0,North,19.6,28.8,N/A,,Mostly Cloudy,10,2013-05-09 22:15:00
5:35 PM,71.6,44.6,38,30.02,10.0,NNE,17.3,-,N/A,,Partly Cloudy,20,2013-05-09 22:35:00
5:55 PM,71.6,44.6,38,30.02,10.0,North,15.0,19.6,N/A,,Clear,360,2013-05-09 22:55:00
6:15 PM,69.8,44.6,40,30.02,10.0,NNE,18.4,26.5,N/A,,Mostly Cloudy,30,2013-05-09 23:15:00
6:35 PM,71.6,44.6,38,30.02,10.0,NE,18.4,23.0,N/A,,Scattered Clouds,40,2013-05-09 23:35:00
6:55 PM,69.8,44.6,40,30.02,10.0,North,17.3,-,N/A,,Partly Cloudy,10,2013-05-09 23:55:00
7:15 PM,69.8,42.8,38,30.01,10.0,NNE,17.3,21.9,N/A,,Clear,20,2013-05-10 00:15:00
7:35 PM,69.8,42.8,38,30.02,10.0,North,19.6,-,N/A,,Clear,10,2013-05-10 00:35:00
7:55 PM,66.2,42.8,43,30.02,10.0,NNE,16.1,-,N/A,,Clear,20,2013-05-10 00:55:00
8:15 PM,66.2,41.0,40,30.03,10.0,North,15.0,-,N/A,,Clear,10,2013-05-10 01:15:00
8:55 PM,62.6,41.0,45,30.06,10.0,North,6.9,-,N/A,,Clear,10,2013-05-10 01:55:00
9:15 PM,60.8,41.0,48,30.06,10.0,NNW,10.4,-,N/A,,Clear,340,2013-05-10 02:15:00
9:35 PM,59.0,41.0,51,30.07,10.0,NNW,9.2,-,N/A,,Clear,340,2013-05-10 02:35:00
9:55 PM,57.2,41.0,55,30.09,10.0,NNW,6.9,-,N/A,,Clear,340,2013-05-10 02:55:00
10:15 PM,57.2,41.0,55,30.11,10.0,North,11.5,-,N/A,,Mostly Cloudy,360,2013-05-10 03:15:00
10:55 PM,57.2,44.6,63,30.12,10.0,NNE,15.0,-,N/A,,Clear,20,2013-05-10 03:55:00
11:15 PM,57.2,44.6,63,30.12,10.0,NNE,13.8,-,N/A,,Clear,30,2013-05-10 04:15:00
11:35 PM,57.2,44.6,63,30.12,10.0,NNE,10.4,-,N/A,,Scattered Clouds,30,2013-05-10 04:35:00